This is the latest recevied weather packets stored in our database for station/object WX6HNX-4. If no packets are shown the sender has not sent any weather packets the latest 10 day(s).
| Time | Temp. | Humidity | Pressure | Rain* | Wind** | Luminosity | Snow |
|---|---|---|---|---|---|---|---|
| 1777725386 | 16.67° C | 52% | 1002.6 hPa | 0 mm | - | - | - |
| 1777725086 | 17.78° C | 48% | 1002.6 hPa | 0 mm | - | - | - |
| 1777724664 | 18.33° C | 46% | 1002.7 hPa | 0 mm | - | - | - |
| 1777724064 | 18.89° C | 44% | 1002.7 hPa | 0 mm | - | - | - |
| 1777723464 | 18.33° C | 46% | 1002.5 hPa | 0 mm | - | - | - |
| 1777721758 | 18.33° C | 46% | 1002.5 hPa | 0 mm | - | - | - |
| 1777720722 | 18.89° C | 44% | 1002.7 hPa | 0 mm | - | - | - |
| 1777719100 | 17.78° C | 50% | 1002.7 hPa | 0 mm | - | - | - |
| 1777718800 | 17.78° C | 50% | 1002.7 hPa | 0 mm | - | - | - |
| 1777718500 | 17.78° C | 50% | 1002.8 hPa | 0 mm | - | - | - |
| 1777718199 | 17.78° C | 49% | 1002.7 hPa | 0 mm | - | - | - |
| 1777716699 | 18.33° C | 48% | 1002.9 hPa | 0 mm | - | - | - |
| 1777715874 | 18.33° C | 47% | 1002.8 hPa | 0 mm | - | - | - |
| 1777715275 | 18.33° C | 48% | 1002.9 hPa | 0 mm | - | - | - |
| 1777713774 | 18.89° C | 46% | 1003 hPa | 0 mm | - | - | - |
| 1777713475 | 19.44° C | 45% | 1003 hPa | 0 mm | - | - | - |
| 1777712425 | 20° C | 43% | 1003.1 hPa | 0 mm | - | - | - |
| 1777711525 | 20° C | 44% | 1003 hPa | 0 mm | - | - | - |
| 1777711225 | 19.44° C | 45% | 1003.1 hPa | 0 mm | - | - | - |
| 1777710925 | 20° C | 45% | 1003.1 hPa | 0 mm | - | - | - |
| 1777709167 | 20.56° C | 43% | 1003.2 hPa | 0 mm | - | - | - |
| 1777708567 | 20.56° C | 44% | 1003.2 hPa | 0 mm | - | - | - |
| 1777707366 | 21.11° C | 42% | 1003.3 hPa | 0 mm | - | - | - |
| 1777707000 | 21.11° C | 42% | 1003.3 hPa | 0 mm | - | - | - |
| 1777706398 | 21.67° C | 41% | 1003.2 hPa | 0 mm | - | - | - |
* Rain latest hour (hover to see other rain measurements)
** Current wind speed in m/s (hover to see current wind gust speed)